createdAt,value
2022-12-27T00:02:38.476Z,5.70
2022-12-27T00:07:40.666Z,5.70
2022-12-27T00:12:42.751Z,5.80
2022-12-27T00:17:46.510Z,5.80
2022-12-27T00:22:48.727Z,5.80
2022-12-27T00:27:50.793Z,5.90
2022-12-27T00:32:54.467Z,5.90
2022-12-27T00:37:56.559Z,5.80
2022-12-27T00:42:58.635Z,5.80
2022-12-27T00:48:02.184Z,5.80
2022-12-27T00:53:04.662Z,5.90
2022-12-27T00:58:06.749Z,5.80
2022-12-27T01:03:10.287Z,5.80
2022-12-27T01:08:12.566Z,5.80
2022-12-27T01:13:14.670Z,5.80
2022-12-27T01:18:21.240Z,5.80
2022-12-27T01:23:23.307Z,5.80
2022-12-27T01:28:25.464Z,5.90
2022-12-27T01:33:28.964Z,5.90
2022-12-27T01:38:31.057Z,5.90
2022-12-27T01:43:39.148Z,5.90
2022-12-27T01:48:42.784Z,5.90
2022-12-27T01:53:48.738Z,5.90
2022-12-27T01:58:56.168Z,5.80
2022-12-27T02:04:02.418Z,5.80
2022-12-27T02:09:10.601Z,5.80
2022-12-27T02:14:13.845Z,5.80
2022-12-27T02:19:30.452Z,5.80
2022-12-27T02:24:58.775Z,5.80
2022-12-27T02:30:04.688Z,5.80
2022-12-27T02:35:14.179Z,5.90
2022-12-27T02:40:18.881Z,6.00
2022-12-27T02:45:28.212Z,6.10
2022-12-27T02:50:43.456Z,6.20
2022-12-27T02:55:58.041Z,6.20
2022-12-27T03:01:13.828Z,6.30
2022-12-27T03:06:44.367Z,6.40
2022-12-27T03:11:50.518Z,6.50
2022-12-27T03:16:58.617Z,6.60
2022-12-27T03:22:00.831Z,6.70
2022-12-27T03:27:08.651Z,6.70
2022-12-27T03:32:14.599Z,6.70
2022-12-27T03:37:21.160Z,6.70
2022-12-27T03:42:26.808Z,6.60
2022-12-27T03:47:37.615Z,6.60
2022-12-27T03:52:43.705Z,6.60
2022-12-27T03:57:46.019Z,6.50
2022-12-27T04:02:49.747Z,6.50
2022-12-27T04:07:52.247Z,6.50
2022-12-27T04:12:54.353Z,6.40
2022-12-27T04:17:58.038Z,6.40
2022-12-27T04:23:00.418Z,6.40
2022-12-27T04:28:02.615Z,6.40
2022-12-27T04:33:06.127Z,6.40
2022-12-27T04:38:08.263Z,6.40
2022-12-27T04:43:10.426Z,6.40
2022-12-27T04:48:15.720Z,6.50
2022-12-27T04:53:20.894Z,6.60
2022-12-27T04:58:22.975Z,6.60
2022-12-27T05:03:26.573Z,6.70
2022-12-27T05:08:30.310Z,6.80
2022-12-27T05:13:32.439Z,6.80
2022-12-27T05:18:35.970Z,6.80
2022-12-27T05:23:38.300Z,6.70
2022-12-27T05:28:40.390Z,6.70
2022-12-27T05:33:43.908Z,6.60
2022-12-27T05:38:46.204Z,6.60
2022-12-27T05:43:48.632Z,6.60
2022-12-27T05:48:52.302Z,6.60
2022-12-27T05:53:54.400Z,6.60
2022-12-27T05:58:56.484Z,6.50
2022-12-27T06:04:00.177Z,6.50
2022-12-27T06:09:02.326Z,6.40
2022-12-27T06:14:04.452Z,6.40
2022-12-27T06:19:08.234Z,6.40
2022-12-27T06:24:10.345Z,6.40
2022-12-27T06:29:13.131Z,6.40
2022-12-27T06:34:16.773Z,6.40
2022-12-27T06:39:20.216Z,6.40
2022-12-27T06:44:22.400Z,6.30
2022-12-27T06:49:25.932Z,6.30
2022-12-27T06:54:29.304Z,6.20
2022-12-27T06:59:31.440Z,6.10
2022-12-27T07:04:35.107Z,6.10
2022-12-27T07:09:37.373Z,6.00
2022-12-27T07:14:39.593Z,6.00
2022-12-27T07:19:43.164Z,6.00
2022-12-27T07:24:45.351Z,6.00
2022-12-27T07:29:47.513Z,5.90
2022-12-27T07:34:51.139Z,5.90
2022-12-27T07:39:53.297Z,5.90
2022-12-27T07:44:55.375Z,5.90
2022-12-27T07:49:58.885Z,6.00
2022-12-27T07:55:00.976Z,6.00
2022-12-27T08:00:03.888Z,6.00
2022-12-27T08:05:07.992Z,6.00
2022-12-27T08:10:10.950Z,6.00
2022-12-27T08:15:14.335Z,6.10
2022-12-27T08:20:17.841Z,6.10
2022-12-27T08:25:19.972Z,6.10
2022-12-27T08:30:22.092Z,6.20
2022-12-27T08:35:51.674Z,6.20
2022-12-27T08:40:47.834Z,6.30
2022-12-27T08:45:50.157Z,6.40
2022-12-27T08:50:53.688Z,6.60
2022-12-27T08:55:56.120Z,7.00
2022-12-27T09:01:05.378Z,7.50
2022-12-27T09:06:10.844Z,7.90
2022-12-27T09:11:14.823Z,8.20
2022-12-27T09:16:18.950Z,8.20
2022-12-27T09:21:24.306Z,8.00
2022-12-27T09:26:28.407Z,7.80
2022-12-27T09:31:30.648Z,7.90
2022-12-27T09:36:34.283Z,8.10
2022-12-27T09:47:17.535Z,8.60
2022-12-27T09:52:26.843Z,8.60
2022-12-27T09:57:35.313Z,8.50
2022-12-27T10:02:37.580Z,8.40
2022-12-27T10:07:50.425Z,8.20
2022-12-27T10:13:08.989Z,8.10
2022-12-27T10:18:21.035Z,7.90
2022-12-27T10:23:28.543Z,7.90
2022-12-27T10:28:37.639Z,7.90
2022-12-27T10:33:39.844Z,8.20
2022-12-27T10:38:43.529Z,8.70
2022-12-27T10:43:50.559Z,9.20
2022-12-27T10:49:20.293Z,9.70
2022-12-27T10:54:22.931Z,10.00
2022-12-27T10:59:26.794Z,10.10
2022-12-27T11:04:30.489Z,10.10
2022-12-27T11:09:35.321Z,10.00
2022-12-27T11:14:37.414Z,9.80
2022-12-27T11:19:47.060Z,9.70
2022-12-27T11:24:52.728Z,9.60
2022-12-27T11:29:58.284Z,9.50
2022-12-27T11:35:00.607Z,9.50
2022-12-27T11:40:23.240Z,9.50
2022-12-27T11:45:29.591Z,9.40
2022-12-27T11:50:46.835Z,9.40
2022-12-27T11:56:12.748Z,9.30
2022-12-27T12:01:37.499Z,9.30
2022-12-27T12:06:50.453Z,9.20
2022-12-27T12:12:06.065Z,9.30
2022-12-27T12:17:36.403Z,9.40
2022-12-27T12:22:58.435Z,9.60
2022-12-27T12:28:56.223Z,9.90
2022-12-27T12:34:13.069Z,10.20
2022-12-27T12:39:25.010Z,10.30
2022-12-27T12:44:50.196Z,10.30
2022-12-27T12:50:17.044Z,10.10
2022-12-27T12:55:25.658Z,10.00
2022-12-27T13:00:56.571Z,10.10
2022-12-27T13:06:08.089Z,10.00
2022-12-27T13:11:29.328Z,10.00
2022-12-27T13:16:41.233Z,10.00
2022-12-27T13:22:01.062Z,10.00
2022-12-27T13:27:10.020Z,9.90
2022-12-27T13:32:24.532Z,9.80
2022-12-27T13:37:40.087Z,9.70
2022-12-27T13:43:05.707Z,9.70
2022-12-27T13:48:26.819Z,9.60
2022-12-27T13:54:16.526Z,9.50
2022-12-27T13:59:49.880Z,9.40
2022-12-27T14:05:21.162Z,9.40
2022-12-27T14:10:35.842Z,9.30
2022-12-27T14:15:59.969Z,9.20
2022-12-27T14:21:13.933Z,9.20
2022-12-27T14:26:50.470Z,9.10
2022-12-27T14:32:27.446Z,9.20
2022-12-27T14:37:51.144Z,9.10
2022-12-27T14:43:29.662Z,9.10
2022-12-27T14:49:28.863Z,9.00
2022-12-27T14:55:11.327Z,9.00
2022-12-27T15:00:17.609Z,8.90
2022-12-27T15:05:36.942Z,8.80
2022-12-27T15:10:59.420Z,8.80
2022-12-27T15:16:14.961Z,8.80
2022-12-27T15:21:41.461Z,8.80
2022-12-27T15:26:51.809Z,8.80
2022-12-27T15:32:04.594Z,8.70
2022-12-27T15:37:27.079Z,8.70
2022-12-27T15:42:48.902Z,8.60
2022-12-27T15:48:18.925Z,8.60
2022-12-27T15:53:46.756Z,8.50
2022-12-27T15:59:22.268Z,8.30
2022-12-27T16:04:48.669Z,8.20
2022-12-27T16:09:50.944Z,8.10
2022-12-27T16:15:46.096Z,7.90
2022-12-27T16:20:56.835Z,7.90
2022-12-27T16:26:02.777Z,7.80
2022-12-27T16:31:10.957Z,7.70
2022-12-27T16:36:22.267Z,7.70
2022-12-27T16:41:56.241Z,7.60
2022-12-27T16:47:10.000Z,7.60
2022-12-27T16:52:50.558Z,7.60
2022-12-27T16:58:20.614Z,7.60
2022-12-27T17:03:44.239Z,7.60
2022-12-27T17:09:31.071Z,7.50
2022-12-27T17:14:38.936Z,7.50
2022-12-27T17:19:47.588Z,7.60
2022-12-27T17:24:57.344Z,7.60
2022-12-27T17:30:25.207Z,7.70
2022-12-27T17:35:32.015Z,7.80
2022-12-27T17:40:42.730Z,7.80
2022-12-27T17:45:51.641Z,7.90
2022-12-27T17:51:00.055Z,8.00
2022-12-27T17:56:13.989Z,8.00
2022-12-27T18:01:16.406Z,8.00
2022-12-27T18:06:19.778Z,8.00
2022-12-27T18:11:27.936Z,8.00
2022-12-27T18:16:38.074Z,7.90
2022-12-27T18:21:55.451Z,7.80
2022-12-27T18:27:04.772Z,7.70
2022-12-27T18:32:09.531Z,7.60
2022-12-27T18:37:16.288Z,7.50
2022-12-27T18:42:32.640Z,7.50
2022-12-27T18:47:39.433Z,7.50
2022-12-27T18:52:43.013Z,7.40
2022-12-27T18:57:47.443Z,7.40
2022-12-27T19:02:50.416Z,7.40
2022-12-27T19:07:57.310Z,7.40
2022-12-27T19:13:02.886Z,7.30
2022-12-27T19:18:07.246Z,7.40
2022-12-27T19:23:34.937Z,7.40
2022-12-27T19:28:38.601Z,7.50
2022-12-27T19:33:40.836Z,7.60
2022-12-27T19:38:47.843Z,7.70
2022-12-27T19:43:53.160Z,7.80
2022-12-27T19:49:31.836Z,7.90
2022-12-27T19:54:19.702Z,8.00
2022-12-27T19:59:25.202Z,8.10
2022-12-27T20:04:27.564Z,8.20
2022-12-27T20:09:30.695Z,8.20
2022-12-27T20:14:34.228Z,8.30
2022-12-27T20:19:36.384Z,8.30
2022-12-27T20:24:38.545Z,8.40
2022-12-27T20:29:42.208Z,8.50
2022-12-27T20:34:44.314Z,8.50
2022-12-27T20:39:46.423Z,8.60
2022-12-27T20:44:49.956Z,8.60
2022-12-27T20:49:52.111Z,8.60
2022-12-27T20:54:54.259Z,8.60
2022-12-27T20:59:57.812Z,8.60
2022-12-27T21:05:00.191Z,8.60
2022-12-27T21:10:02.391Z,8.60
2022-12-27T21:15:07.283Z,8.70
2022-12-27T21:20:10.522Z,8.70
2022-12-27T21:25:12.656Z,8.80
2022-12-27T21:30:16.400Z,8.80
2022-12-27T21:35:18.528Z,8.80
2022-12-27T21:40:20.594Z,8.80
2022-12-27T21:45:24.098Z,8.90
2022-12-27T21:50:26.262Z,9.00
2022-12-27T21:55:28.380Z,9.00
2022-12-27T22:00:41.981Z,9.00
2022-12-27T22:05:44.924Z,9.10
2022-12-27T22:10:54.563Z,9.20
2022-12-27T22:16:00.037Z,9.20
2022-12-27T22:21:05.145Z,9.20
2022-12-27T22:26:10.650Z,9.20
2022-12-27T22:31:16.235Z,9.20
2022-12-27T22:36:20.049Z,9.20
2022-12-27T22:41:23.898Z,9.20
2022-12-27T22:46:39.384Z,9.20
2022-12-27T22:51:52.130Z,9.10
2022-12-27T22:56:54.217Z,9.10
2022-12-27T23:01:57.866Z,9.10
2022-12-27T23:06:59.971Z,9.10
2022-12-27T23:12:02.082Z,9.10
2022-12-27T23:17:05.567Z,9.10
2022-12-27T23:22:07.782Z,9.10
2022-12-27T23:27:09.861Z,9.10
2022-12-27T23:32:13.378Z,9.00
2022-12-27T23:37:15.487Z,9.00
2022-12-27T23:42:17.579Z,9.00
2022-12-27T23:47:21.073Z,9.00
2022-12-27T23:52:23.160Z,8.90
2022-12-27T23:57:25.433Z,8.90
